sensor_id;sensor_type;location;lat;lon;timestamp;temperature;humidity
67820;DHT22;54618;52.018;5.576;2023-04-06T00:01:14;18.10;42.00
67820;DHT22;54618;52.018;5.576;2023-04-06T00:03:39;18.10;42.00
67820;DHT22;54618;52.018;5.576;2023-04-06T00:06:05;18.10;42.00
67820;DHT22;54618;52.018;5.576;2023-04-06T00:08:31;18.00;42.00
67820;DHT22;54618;52.018;5.576;2023-04-06T00:10:57;18.00;42.00
67820;DHT22;54618;52.018;5.576;2023-04-06T00:13:22;18.00;42.00
67820;DHT22;54618;52.018;5.576;2023-04-06T00:15:48;18.00;42.00
67820;DHT22;54618;52.018;5.576;2023-04-06T00:18:13;18.00;42.00
67820;DHT22;54618;52.018;5.576;2023-04-06T00:20:40;18.00;42.00
67820;DHT22;54618;52.018;5.576;2023-04-06T00:23:05;18.00;42.10
67820;DHT22;54618;52.018;5.576;2023-04-06T00:25:31;18.00;42.00
67820;DHT22;54618;52.018;5.576;2023-04-06T00:27:57;18.00;42.00
67820;DHT22;54618;52.018;5.576;2023-04-06T00:30:22;18.00;41.90
67820;DHT22;54618;52.018;5.576;2023-04-06T00:32:48;18.10;42.00
67820;DHT22;54618;52.018;5.576;2023-04-06T00:35:13;18.00;42.00
67820;DHT22;54618;52.018;5.576;2023-04-06T00:37:40;18.10;42.10
67820;DHT22;54618;52.018;5.576;2023-04-06T00:40:06;18.00;42.10
67820;DHT22;54618;52.018;5.576;2023-04-06T00:42:32;18.00;42.10
67820;DHT22;54618;52.018;5.576;2023-04-06T00:45:00;18.00;42.20
67820;DHT22;54618;52.018;5.576;2023-04-06T00:47:26;18.00;42.20
67820;DHT22;54618;52.018;5.576;2023-04-06T00:49:53;18.00;42.30
67820;DHT22;54618;52.018;5.576;2023-04-06T00:52:19;18.00;42.40
67820;DHT22;54618;52.018;5.576;2023-04-06T00:54:44;17.90;42.40
67820;DHT22;54618;52.018;5.576;2023-04-06T00:57:13;17.90;42.50
67820;DHT22;54618;52.018;5.576;2023-04-06T00:59:40;17.90;42.50
67820;DHT22;54618;52.018;5.576;2023-04-06T01:02:06;17.90;42.50
67820;DHT22;54618;52.018;5.576;2023-04-06T01:04:32;17.90;42.50
67820;DHT22;54618;52.018;5.576;2023-04-06T01:06:58;17.90;42.50
67820;DHT22;54618;52.018;5.576;2023-04-06T01:09:23;17.90;42.50
67820;DHT22;54618;52.018;5.576;2023-04-06T01:11:49;17.80;42.50
67820;DHT22;54618;52.018;5.576;2023-04-06T01:14:14;17.80;42.50
67820;DHT22;54618;52.018;5.576;2023-04-06T01:16:41;17.80;42.50
67820;DHT22;54618;52.018;5.576;2023-04-06T01:19:11;17.80;42.50
67820;DHT22;54618;52.018;5.576;2023-04-06T01:21:38;17.80;42.50
67820;DHT22;54618;52.018;5.576;2023-04-06T01:24:04;17.80;42.50
67820;DHT22;54618;52.018;5.576;2023-04-06T01:26:30;17.80;42.50
67820;DHT22;54618;52.018;5.576;2023-04-06T01:28:56;17.80;42.60
67820;DHT22;54618;52.018;5.576;2023-04-06T01:31:22;17.70;42.50
67820;DHT22;54618;52.018;5.576;2023-04-06T01:33:48;17.70;42.40
67820;DHT22;54618;52.018;5.576;2023-04-06T01:36:14;17.70;42.50
67820;DHT22;54618;52.018;5.576;2023-04-06T01:38:39;17.80;42.50
67820;DHT22;54618;52.018;5.576;2023-04-06T01:41:06;17.70;42.50
67820;DHT22;54618;52.018;5.576;2023-04-06T01:43:32;17.70;42.50
67820;DHT22;54618;52.018;5.576;2023-04-06T01:45:58;17.70;42.50
67820;DHT22;54618;52.018;5.576;2023-04-06T01:48:23;17.70;42.50
67820;DHT22;54618;52.018;5.576;2023-04-06T01:50:49;17.70;42.50
67820;DHT22;54618;52.018;5.576;2023-04-06T01:53:14;17.70;42.50
67820;DHT22;54618;52.018;5.576;2023-04-06T01:55:41;17.70;42.50
67820;DHT22;54618;52.018;5.576;2023-04-06T01:58:07;17.60;42.40
67820;DHT22;54618;52.018;5.576;2023-04-06T02:00:32;17.60;42.50
67820;DHT22;54618;52.018;5.576;2023-04-06T02:02:58;17.60;42.40
67820;DHT22;54618;52.018;5.576;2023-04-06T02:05:24;17.60;42.50
67820;DHT22;54618;52.018;5.576;2023-04-06T02:07:50;17.60;42.50
67820;DHT22;54618;52.018;5.576;2023-04-06T02:10:16;17.60;42.50
67820;DHT22;54618;52.018;5.576;2023-04-06T02:12:42;17.60;42.50
67820;DHT22;54618;52.018;5.576;2023-04-06T02:15:08;17.60;42.50
67820;DHT22;54618;52.018;5.576;2023-04-06T02:17:33;17.60;42.50
67820;DHT22;54618;52.018;5.576;2023-04-06T02:19:59;17.50;42.40
67820;DHT22;54618;52.018;5.576;2023-04-06T02:22:25;17.60;42.50
67820;DHT22;54618;52.018;5.576;2023-04-06T02:24:50;17.50;42.40
67820;DHT22;54618;52.018;5.576;2023-04-06T02:27:15;17.50;42.40
67820;DHT22;54618;52.018;5.576;2023-04-06T02:29:41;17.50;42.40
67820;DHT22;54618;52.018;5.576;2023-04-06T02:32:06;17.50;42.40
67820;DHT22;54618;52.018;5.576;2023-04-06T02:34:32;17.50;42.40
67820;DHT22;54618;52.018;5.576;2023-04-06T02:36:58;17.50;42.30
67820;DHT22;54618;52.018;5.576;2023-04-06T02:39:23;17.50;42.40
67820;DHT22;54618;52.018;5.576;2023-04-06T02:41:49;17.50;42.40
67820;DHT22;54618;52.018;5.576;2023-04-06T02:44:14;17.50;42.40
67820;DHT22;54618;52.018;5.576;2023-04-06T02:46:40;17.50;42.30
67820;DHT22;54618;52.018;5.576;2023-04-06T02:49:06;17.50;42.30
67820;DHT22;54618;52.018;5.576;2023-04-06T02:51:31;17.40;42.30
67820;DHT22;54618;52.018;5.576;2023-04-06T02:53:57;17.40;42.30
67820;DHT22;54618;52.018;5.576;2023-04-06T02:56:23;17.40;42.30
67820;DHT22;54618;52.018;5.576;2023-04-06T02:58:48;17.40;43.00
67820;DHT22;54618;52.018;5.576;2023-04-06T03:01:14;17.40;42.30
67820;DHT22;54618;52.018;5.576;2023-04-06T03:03:40;17.40;42.30
67820;DHT22;54618;52.018;5.576;2023-04-06T03:06:05;17.40;42.30
67820;DHT22;54618;52.018;5.576;2023-04-06T03:08:31;17.40;42.30
67820;DHT22;54618;52.018;5.576;2023-04-06T03:10:56;17.40;42.30
67820;DHT22;54618;52.018;5.576;2023-04-06T03:13:22;17.40;42.30
67820;DHT22;54618;52.018;5.576;2023-04-06T03:15:48;17.40;42.20
67820;DHT22;54618;52.018;5.576;2023-04-06T03:18:13;17.40;42.30
67820;DHT22;54618;52.018;5.576;2023-04-06T03:20:39;17.30;42.20
67820;DHT22;54618;52.018;5.576;2023-04-06T03:23:04;17.30;42.20
67820;DHT22;54618;52.018;5.576;2023-04-06T03:25:30;17.30;42.20
67820;DHT22;54618;52.018;5.576;2023-04-06T03:27:56;17.30;42.20
67820;DHT22;54618;52.018;5.576;2023-04-06T03:30:21;17.30;42.20
67820;DHT22;54618;52.018;5.576;2023-04-06T03:32:47;17.30;42.20
67820;DHT22;54618;52.018;5.576;2023-04-06T03:35:12;17.30;42.20
67820;DHT22;54618;52.018;5.576;2023-04-06T03:37:38;17.30;42.20
67820;DHT22;54618;52.018;5.576;2023-04-06T03:40:04;17.30;42.20
67820;DHT22;54618;52.018;5.576;2023-04-06T03:42:30;17.30;42.20
67820;DHT22;54618;52.018;5.576;2023-04-06T03:44:58;17.30;42.20
67820;DHT22;54618;52.018;5.576;2023-04-06T03:47:23;17.30;42.20
67820;DHT22;54618;52.018;5.576;2023-04-06T03:49:49;17.20;42.20
67820;DHT22;54618;52.018;5.576;2023-04-06T03:52:15;17.20;42.20
67820;DHT22;54618;52.018;5.576;2023-04-06T03:54:40;17.20;42.20
67820;DHT22;54618;52.018;5.576;2023-04-06T03:57:06;17.20;42.20
67820;DHT22;54618;52.018;5.576;2023-04-06T03:59:31;17.20;42.20
67820;DHT22;54618;52.018;5.576;2023-04-06T04:01:57;17.20;42.20
67820;DHT22;54618;52.018;5.576;2023-04-06T04:04:23;17.20;42.10
67820;DHT22;54618;52.018;5.576;2023-04-06T04:06:48;17.20;42.20
67820;DHT22;54618;52.018;5.576;2023-04-06T04:09:13;17.20;42.10
67820;DHT22;54618;52.018;5.576;2023-04-06T04:11:39;17.40;41.90
67820;DHT22;54618;52.018;5.576;2023-04-06T04:14:05;17.70;41.70
67820;DHT22;54618;52.018;5.576;2023-04-06T04:16:30;18.00;41.50
67820;DHT22;54618;52.018;5.576;2023-04-06T04:18:56;18.20;41.20
67820;DHT22;54618;52.018;5.576;2023-04-06T04:21:23;18.30;41.10
67820;DHT22;54618;52.018;5.576;2023-04-06T04:23:48;18.40;41.10
67820;DHT22;54618;52.018;5.576;2023-04-06T04:26:15;18.40;41.20
67820;DHT22;54618;52.018;5.576;2023-04-06T04:28:40;18.30;41.90
67820;DHT22;54618;52.018;5.576;2023-04-06T04:31:06;18.10;41.30
67820;DHT22;54618;52.018;5.576;2023-04-06T04:33:31;18.10;41.50
67820;DHT22;54618;52.018;5.576;2023-04-06T04:35:57;18.00;41.60
67820;DHT22;54618;52.018;5.576;2023-04-06T04:38:22;17.90;41.60
67820;DHT22;54618;52.018;5.576;2023-04-06T04:40:47;18.00;41.70
67820;DHT22;54618;52.018;5.576;2023-04-06T04:43:13;18.00;41.60
67820;DHT22;54618;52.018;5.576;2023-04-06T04:45:39;18.20;41.60
67820;DHT22;54618;52.018;5.576;2023-04-06T04:48:04;18.30;41.50
67820;DHT22;54618;52.018;5.576;2023-04-06T04:50:31;18.30;41.40
67820;DHT22;54618;52.018;5.576;2023-04-06T04:52:56;18.40;41.40
67820;DHT22;54618;52.018;5.576;2023-04-06T04:55:22;18.50;41.40
67820;DHT22;54618;52.018;5.576;2023-04-06T04:57:47;18.50;41.30
67820;DHT22;54618;52.018;5.576;2023-04-06T05:00:13;18.50;41.20
67820;DHT22;54618;52.018;5.576;2023-04-06T05:02:39;18.50;41.20
67820;DHT22;54618;52.018;5.576;2023-04-06T05:05:05;18.60;41.20
67820;DHT22;54618;52.018;5.576;2023-04-06T05:07:31;18.60;41.20
67820;DHT22;54618;52.018;5.576;2023-04-06T05:09:56;18.60;41.80
67820;DHT22;54618;52.018;5.576;2023-04-06T05:12:22;18.60;41.10
67820;DHT22;54618;52.018;5.576;2023-04-06T05:14:47;18.60;41.10
67820;DHT22;54618;52.018;5.576;2023-04-06T05:17:13;18.70;41.10
67820;DHT22;54618;52.018;5.576;2023-04-06T05:19:39;18.60;41.00
67820;DHT22;54618;52.018;5.576;2023-04-06T05:22:04;18.70;41.00
67820;DHT22;54618;52.018;5.576;2023-04-06T05:24:30;18.70;41.00
67820;DHT22;54618;52.018;5.576;2023-04-06T05:26:55;18.70;41.10
67820;DHT22;54618;52.018;5.576;2023-04-06T05:29:21;18.60;41.20
67820;DHT22;54618;52.018;5.576;2023-04-06T05:31:47;18.50;41.30
67820;DHT22;54618;52.018;5.576;2023-04-06T05:34:15;18.50;41.20
67820;DHT22;54618;52.018;5.576;2023-04-06T05:36:41;18.60;41.10
67820;DHT22;54618;52.018;5.576;2023-04-06T05:39:06;18.90;40.90
67820;DHT22;54618;52.018;5.576;2023-04-06T05:41:32;19.30;40.70
67820;DHT22;54618;52.018;5.576;2023-04-06T05:43:58;19.70;40.30
67820;DHT22;54618;52.018;5.576;2023-04-06T05:46:24;20.00;40.00
67820;DHT22;54618;52.018;5.576;2023-04-06T05:48:49;20.20;39.70
67820;DHT22;54618;52.018;5.576;2023-04-06T05:51:15;20.40;39.60
67820;DHT22;54618;52.018;5.576;2023-04-06T05:53:40;20.50;39.50
67820;DHT22;54618;52.018;5.576;2023-04-06T05:56:06;20.70;39.40
67820;DHT22;54618;52.018;5.576;2023-04-06T05:58:32;20.80;39.40
67820;DHT22;54618;52.018;5.576;2023-04-06T06:00:58;20.90;39.30
67820;DHT22;54618;52.018;5.576;2023-04-06T06:03:24;21.00;39.30
67820;DHT22;54618;52.018;5.576;2023-04-06T06:05:49;21.00;39.20
67820;DHT22;54618;52.018;5.576;2023-04-06T06:08:15;21.10;39.40
67820;DHT22;54618;52.018;5.576;2023-04-06T06:10:41;21.00;39.40
67820;DHT22;54618;52.018;5.576;2023-04-06T06:13:06;21.00;39.50
67820;DHT22;54618;52.018;5.576;2023-04-06T06:15:32;21.10;39.60
67820;DHT22;54618;52.018;5.576;2023-04-06T06:17:58;21.00;39.60
67820;DHT22;54618;52.018;5.576;2023-04-06T06:20:25;21.00;39.60
67820;DHT22;54618;52.018;5.576;2023-04-06T06:22:50;21.10;39.70
67820;DHT22;54618;52.018;5.576;2023-04-06T06:25:16;21.10;39.60
67820;DHT22;54618;52.018;5.576;2023-04-06T06:27:42;21.10;39.60
67820;DHT22;54618;52.018;5.576;2023-04-06T06:30:08;21.20;39.70
67820;DHT22;54618;52.018;5.576;2023-04-06T06:32:34;21.20;39.70
67820;DHT22;54618;52.018;5.576;2023-04-06T06:34:59;21.20;39.60
67820;DHT22;54618;52.018;5.576;2023-04-06T06:37:25;21.20;39.60
67820;DHT22;54618;52.018;5.576;2023-04-06T06:39:50;21.20;39.60
67820;DHT22;54618;52.018;5.576;2023-04-06T06:42:16;21.20;39.60
67820;DHT22;54618;52.018;5.576;2023-04-06T06:44:41;21.30;39.60
67820;DHT22;54618;52.018;5.576;2023-04-06T06:47:07;21.30;39.60
67820;DHT22;54618;52.018;5.576;2023-04-06T06:49:32;21.30;39.50
67820;DHT22;54618;52.018;5.576;2023-04-06T06:51:58;21.30;39.50
67820;DHT22;54618;52.018;5.576;2023-04-06T06:54:24;21.40;39.60
67820;DHT22;54618;52.018;5.576;2023-04-06T06:56:49;21.40;39.60
67820;DHT22;54618;52.018;5.576;2023-04-06T06:59:15;21.40;39.60
67820;DHT22;54618;52.018;5.576;2023-04-06T07:01:41;21.40;39.50
67820;DHT22;54618;52.018;5.576;2023-04-06T07:04:07;21.40;39.50
67820;DHT22;54618;52.018;5.576;2023-04-06T07:06:35;21.40;39.50
67820;DHT22;54618;52.018;5.576;2023-04-06T07:09:01;21.40;39.50
67820;DHT22;54618;52.018;5.576;2023-04-06T07:11:28;21.50;39.50
67820;DHT22;54618;52.018;5.576;2023-04-06T07:13:54;21.50;39.50
67820;DHT22;54618;52.018;5.576;2023-04-06T07:16:20;21.50;39.50
67820;DHT22;54618;52.018;5.576;2023-04-06T07:18:45;21.50;39.50
67820;DHT22;54618;52.018;5.576;2023-04-06T07:21:11;21.50;39.50
67820;DHT22;54618;52.018;5.576;2023-04-06T07:23:37;21.40;39.50
67820;DHT22;54618;52.018;5.576;2023-04-06T07:26:02;21.40;39.60
67820;DHT22;54618;52.018;5.576;2023-04-06T07:28:28;21.40;39.50
67820;DHT22;54618;52.018;5.576;2023-04-06T07:30:54;21.40;39.60
67820;DHT22;54618;52.018;5.576;2023-04-06T07:33:20;21.40;39.60
67820;DHT22;54618;52.018;5.576;2023-04-06T07:35:45;21.40;39.60
67820;DHT22;54618;52.018;5.576;2023-04-06T07:38:11;21.30;39.60
67820;DHT22;54618;52.018;5.576;2023-04-06T07:40:37;21.30;39.70
67820;DHT22;54618;52.018;5.576;2023-04-06T07:43:02;21.40;39.90
67820;DHT22;54618;52.018;5.576;2023-04-06T07:45:28;21.40;40.00
67820;DHT22;54618;52.018;5.576;2023-04-06T07:47:54;21.30;40.10
67820;DHT22;54618;52.018;5.576;2023-04-06T07:50:20;21.10;40.10
67820;DHT22;54618;52.018;5.576;2023-04-06T07:52:45;21.10;40.30
67820;DHT22;54618;52.018;5.576;2023-04-06T07:55:11;21.00;40.30
67820;DHT22;54618;52.018;5.576;2023-04-06T07:57:37;21.10;40.30
67820;DHT22;54618;52.018;5.576;2023-04-06T08:00:03;21.10;40.30
67820;DHT22;54618;52.018;5.576;2023-04-06T08:02:30;21.20;40.40
67820;DHT22;54618;52.018;5.576;2023-04-06T08:04:56;21.20;40.50
67820;DHT22;54618;52.018;5.576;2023-04-06T08:07:21;21.20;40.40
67820;DHT22;54618;52.018;5.576;2023-04-06T08:09:47;21.20;40.50
67820;DHT22;54618;52.018;5.576;2023-04-06T08:12:13;21.30;40.50
67820;DHT22;54618;52.018;5.576;2023-04-06T08:14:39;21.30;40.50
67820;DHT22;54618;52.018;5.576;2023-04-06T08:17:05;21.30;40.40
67820;DHT22;54618;52.018;5.576;2023-04-06T08:19:30;21.30;40.50
67820;DHT22;54618;52.018;5.576;2023-04-06T08:21:56;21.30;40.50
67820;DHT22;54618;52.018;5.576;2023-04-06T08:24:21;21.30;40.50
67820;DHT22;54618;52.018;5.576;2023-04-06T08:26:47;21.30;40.50
67820;DHT22;54618;52.018;5.576;2023-04-06T08:29:12;21.30;40.50
67820;DHT22;54618;52.018;5.576;2023-04-06T08:31:38;21.30;40.50
67820;DHT22;54618;52.018;5.576;2023-04-06T08:34:04;21.30;40.40
67820;DHT22;54618;52.018;5.576;2023-04-06T08:36:30;21.30;40.40
67820;DHT22;54618;52.018;5.576;2023-04-06T08:38:56;21.30;40.40
67820;DHT22;54618;52.018;5.576;2023-04-06T08:41:22;21.30;40.40
67820;DHT22;54618;52.018;5.576;2023-04-06T08:43:54;21.30;40.40
67820;DHT22;54618;52.018;5.576;2023-04-06T08:46:21;21.30;40.40
67820;DHT22;54618;52.018;5.576;2023-04-06T08:48:47;21.40;40.30
67820;DHT22;54618;52.018;5.576;2023-04-06T08:51:17;21.40;40.30
67820;DHT22;54618;52.018;5.576;2023-04-06T08:53:44;21.40;40.20
67820;DHT22;54618;52.018;5.576;2023-04-06T08:56:10;21.50;40.20
67820;DHT22;54618;52.018;5.576;2023-04-06T08:58:39;21.50;40.20
67820;DHT22;54618;52.018;5.576;2023-04-06T09:01:10;21.50;40.10
67820;DHT22;54618;52.018;5.576;2023-04-06T09:03:38;21.50;40.10
67820;DHT22;54618;52.018;5.576;2023-04-06T09:06:05;21.50;40.10
67820;DHT22;54618;52.018;5.576;2023-04-06T09:08:33;21.50;40.10
67820;DHT22;54618;52.018;5.576;2023-04-06T09:10:58;21.50;40.00
67820;DHT22;54618;52.018;5.576;2023-04-06T09:13:24;21.60;40.00
67820;DHT22;54618;52.018;5.576;2023-04-06T09:16:03;21.50;39.90
67820;DHT22;54618;52.018;5.576;2023-04-06T09:18:32;21.60;40.00
67820;DHT22;54618;52.018;5.576;2023-04-06T09:21:03;21.60;40.00
67820;DHT22;54618;52.018;5.576;2023-04-06T09:23:29;21.60;40.00
67820;DHT22;54618;52.018;5.576;2023-04-06T09:26:12;21.60;40.00
67820;DHT22;54618;52.018;5.576;2023-04-06T09:28:52;21.60;39.90
67820;DHT22;54618;52.018;5.576;2023-04-06T09:31:31;21.60;39.90
67820;DHT22;54618;52.018;5.576;2023-04-06T09:33:58;21.60;39.90
67820;DHT22;54618;52.018;5.576;2023-04-06T09:36:31;21.60;39.90
67820;DHT22;54618;52.018;5.576;2023-04-06T09:38:59;21.60;39.90
67820;DHT22;54618;52.018;5.576;2023-04-06T09:41:29;21.70;39.90
67820;DHT22;54618;52.018;5.576;2023-04-06T09:46:38;21.70;39.90
67820;DHT22;54618;52.018;5.576;2023-04-06T09:49:05;21.70;39.90
67820;DHT22;54618;52.018;5.576;2023-04-06T09:51:39;21.70;39.90
67820;DHT22;54618;52.018;5.576;2023-04-06T09:54:06;21.60;39.80
67820;DHT22;54618;52.018;5.576;2023-04-06T09:56:47;21.60;39.90
67820;DHT22;54618;52.018;5.576;2023-04-06T10:02:15;21.50;40.00
67820;DHT22;54618;52.018;5.576;2023-04-06T10:04:49;21.60;40.00
67820;DHT22;54618;52.018;5.576;2023-04-06T10:07:17;21.60;40.00
67820;DHT22;54618;52.018;5.576;2023-04-06T10:09:45;21.60;40.00
67820;DHT22;54618;52.018;5.576;2023-04-06T10:12:12;21.60;40.00
67820;DHT22;54618;52.018;5.576;2023-04-06T10:14:39;21.60;40.00
67820;DHT22;54618;52.018;5.576;2023-04-06T10:17:06;21.60;40.00
67820;DHT22;54618;52.018;5.576;2023-04-06T10:22:12;21.70;40.00
67820;DHT22;54618;52.018;5.576;2023-04-06T10:24:40;21.70;40.00
67820;DHT22;54618;52.018;5.576;2023-04-06T10:27:06;21.80;40.00
67820;DHT22;54618;52.018;5.576;2023-04-06T10:29:45;21.80;40.10
67820;DHT22;54618;52.018;5.576;2023-04-06T10:32:11;21.80;40.30
67820;DHT22;54618;52.018;5.576;2023-04-06T10:34:37;21.70;40.20
67820;DHT22;54618;52.018;5.576;2023-04-06T10:37:13;21.70;40.30
67820;DHT22;54618;52.018;5.576;2023-04-06T10:39:46;21.60;40.30
67820;DHT22;54618;52.018;5.576;2023-04-06T10:42:12;21.60;40.30
67820;DHT22;54618;52.018;5.576;2023-04-06T10:44:42;21.60;40.30
67820;DHT22;54618;52.018;5.576;2023-04-06T10:47:16;21.50;40.40
67820;DHT22;54618;52.018;5.576;2023-04-06T10:49:43;21.50;40.40
67820;DHT22;54618;52.018;5.576;2023-04-06T10:52:09;21.50;40.50
67820;DHT22;54618;52.018;5.576;2023-04-06T10:54:40;21.50;40.50
67820;DHT22;54618;52.018;5.576;2023-04-06T10:57:06;21.50;40.80
67820;DHT22;54618;52.018;5.576;2023-04-06T10:59:32;21.50;40.90
67820;DHT22;54618;52.018;5.576;2023-04-06T11:01:57;21.50;40.90
67820;DHT22;54618;52.018;5.576;2023-04-06T11:04:23;21.50;41.00
67820;DHT22;54618;52.018;5.576;2023-04-06T11:06:50;21.40;41.10
67820;DHT22;54618;52.018;5.576;2023-04-06T11:09:26;21.40;41.10
67820;DHT22;54618;52.018;5.576;2023-04-06T11:11:52;21.50;41.30
67820;DHT22;54618;52.018;5.576;2023-04-06T11:14:18;21.50;41.20
67820;DHT22;54618;52.018;5.576;2023-04-06T11:16:46;21.50;41.10
67820;DHT22;54618;52.018;5.576;2023-04-06T11:19:13;21.50;41.10
67820;DHT22;54618;52.018;5.576;2023-04-06T11:24:19;21.50;41.20
67820;DHT22;54618;52.018;5.576;2023-04-06T11:29:12;21.50;41.30
67820;DHT22;54618;52.018;5.576;2023-04-06T11:31:48;21.50;41.30
67820;DHT22;54618;52.018;5.576;2023-04-06T11:34:18;21.50;41.30
67820;DHT22;54618;52.018;5.576;2023-04-06T11:36:45;21.50;41.30
67820;DHT22;54618;52.018;5.576;2023-04-06T11:39:13;21.40;41.30
67820;DHT22;54618;52.018;5.576;2023-04-06T11:41:39;21.50;41.30
67820;DHT22;54618;52.018;5.576;2023-04-06T11:44:05;21.50;41.30
67820;DHT22;54618;52.018;5.576;2023-04-06T11:46:31;21.40;41.20
67820;DHT22;54618;52.018;5.576;2023-04-06T11:49:01;21.40;41.30
67820;DHT22;54618;52.018;5.576;2023-04-06T11:51:27;21.40;41.30
67820;DHT22;54618;52.018;5.576;2023-04-06T11:53:53;21.40;41.30
67820;DHT22;54618;52.018;5.576;2023-04-06T11:56:24;21.40;41.30
67820;DHT22;54618;52.018;5.576;2023-04-06T11:58:50;21.40;41.30
67820;DHT22;54618;52.018;5.576;2023-04-06T12:01:16;21.40;41.40
67820;DHT22;54618;52.018;5.576;2023-04-06T12:03:41;21.40;41.10
67820;DHT22;54618;52.018;5.576;2023-04-06T12:06:07;21.50;41.20
67820;DHT22;54618;52.018;5.576;2023-04-06T12:08:32;21.50;41.10
67820;DHT22;54618;52.018;5.576;2023-04-06T12:10:57;21.50;41.20
67820;DHT22;54618;52.018;5.576;2023-04-06T12:13:24;21.40;41.10
67820;DHT22;54618;52.018;5.576;2023-04-06T12:15:50;21.40;41.20
67820;DHT22;54618;52.018;5.576;2023-04-06T12:18:15;21.40;41.20
67820;DHT22;54618;52.018;5.576;2023-04-06T12:20:41;21.40;41.20
67820;DHT22;54618;52.018;5.576;2023-04-06T12:23:06;21.40;41.20
67820;DHT22;54618;52.018;5.576;2023-04-06T12:25:32;21.40;41.20
67820;DHT22;54618;52.018;5.576;2023-04-06T12:27:57;21.40;41.20
67820;DHT22;54618;52.018;5.576;2023-04-06T12:30:23;21.40;41.20
67820;DHT22;54618;52.018;5.576;2023-04-06T12:32:50;21.40;41.30
67820;DHT22;54618;52.018;5.576;2023-04-06T12:35:15;21.40;41.30
67820;DHT22;54618;52.018;5.576;2023-04-06T12:37:41;21.40;41.30
67820;DHT22;54618;52.018;5.576;2023-04-06T12:40:07;21.40;41.20
67820;DHT22;54618;52.018;5.576;2023-04-06T12:42:36;21.40;41.30
67820;DHT22;54618;52.018;5.576;2023-04-06T12:45:01;21.40;41.30
67820;DHT22;54618;52.018;5.576;2023-04-06T12:47:27;21.30;41.40
67820;DHT22;54618;52.018;5.576;2023-04-06T12:49:53;21.40;41.60
67820;DHT22;54618;52.018;5.576;2023-04-06T12:52:19;21.40;41.60
67820;DHT22;54618;52.018;5.576;2023-04-06T12:54:44;21.40;41.80
67820;DHT22;54618;52.018;5.576;2023-04-06T12:57:10;21.40;41.90
67820;DHT22;54618;52.018;5.576;2023-04-06T12:59:35;21.40;41.90
67820;DHT22;54618;52.018;5.576;2023-04-06T13:02:03;21.40;41.90
67820;DHT22;54618;52.018;5.576;2023-04-06T13:04:29;21.40;42.10
67820;DHT22;54618;52.018;5.576;2023-04-06T13:06:55;21.50;42.10
67820;DHT22;54618;52.018;5.576;2023-04-06T13:09:20;21.50;42.20
67820;DHT22;54618;52.018;5.576;2023-04-06T13:11:46;21.50;42.30
67820;DHT22;54618;52.018;5.576;2023-04-06T13:14:11;21.50;42.30
67820;DHT22;54618;52.018;5.576;2023-04-06T13:16:37;21.50;42.30
67820;DHT22;54618;52.018;5.576;2023-04-06T13:19:03;21.50;42.30
67820;DHT22;54618;52.018;5.576;2023-04-06T13:21:28;21.50;42.30
67820;DHT22;54618;52.018;5.576;2023-04-06T13:23:55;21.40;42.40
67820;DHT22;54618;52.018;5.576;2023-04-06T13:26:21;21.40;42.40
67820;DHT22;54618;52.018;5.576;2023-04-06T13:28:46;21.40;42.40
67820;DHT22;54618;52.018;5.576;2023-04-06T13:31:12;21.40;42.40
67820;DHT22;54618;52.018;5.576;2023-04-06T13:33:38;21.40;42.50
67820;DHT22;54618;52.018;5.576;2023-04-06T13:36:06;21.40;42.50
67820;DHT22;54618;52.018;5.576;2023-04-06T13:38:32;21.30;42.50
67820;DHT22;54618;52.018;5.576;2023-04-06T13:40:59;21.30;42.50
67820;DHT22;54618;52.018;5.576;2023-04-06T13:43:25;21.30;42.50
67820;DHT22;54618;52.018;5.576;2023-04-06T13:45:53;21.30;42.50
67820;DHT22;54618;52.018;5.576;2023-04-06T13:48:20;21.30;42.60
67820;DHT22;54618;52.018;5.576;2023-04-06T13:50:46;21.30;42.60
67820;DHT22;54618;52.018;5.576;2023-04-06T13:53:11;21.30;42.60
67820;DHT22;54618;52.018;5.576;2023-04-06T13:55:37;21.20;42.60
67820;DHT22;54618;52.018;5.576;2023-04-06T13:58:02;21.20;42.60
67820;DHT22;54618;52.018;5.576;2023-04-06T14:00:28;21.20;42.50
67820;DHT22;54618;52.018;5.576;2023-04-06T14:02:54;21.20;42.60
67820;DHT22;54618;52.018;5.576;2023-04-06T14:05:20;21.20;42.60
67820;DHT22;54618;52.018;5.576;2023-04-06T14:07:46;21.20;42.60
67820;DHT22;54618;52.018;5.576;2023-04-06T14:10:12;21.20;42.60
67820;DHT22;54618;52.018;5.576;2023-04-06T14:12:41;21.20;42.60
67820;DHT22;54618;52.018;5.576;2023-04-06T14:15:08;21.20;42.70
67820;DHT22;54618;52.018;5.576;2023-04-06T14:17:34;21.20;42.80
67820;DHT22;54618;52.018;5.576;2023-04-06T14:20:00;21.30;42.80
67820;DHT22;54618;52.018;5.576;2023-04-06T14:22:25;21.40;43.00
67820;DHT22;54618;52.018;5.576;2023-04-06T14:24:51;21.30;43.00
67820;DHT22;54618;52.018;5.576;2023-04-06T14:27:16;21.20;43.20
67820;DHT22;54618;52.018;5.576;2023-04-06T14:29:42;21.10;43.60
67820;DHT22;54618;52.018;5.576;2023-04-06T14:32:07;21.00;43.70
67820;DHT22;54618;52.018;5.576;2023-04-06T14:34:33;20.80;44.00
67820;DHT22;54618;52.018;5.576;2023-04-06T14:36:59;20.70;44.20
67820;DHT22;54618;52.018;5.576;2023-04-06T14:39:25;20.60;44.30
67820;DHT22;54618;52.018;5.576;2023-04-06T14:41:50;20.50;44.40
67820;DHT22;54618;52.018;5.576;2023-04-06T14:44:16;20.50;44.40
67820;DHT22;54618;52.018;5.576;2023-04-06T14:46:42;20.50;44.40
67820;DHT22;54618;52.018;5.576;2023-04-06T14:49:08;20.40;44.40
67820;DHT22;54618;52.018;5.576;2023-04-06T14:51:34;20.50;44.50
67820;DHT22;54618;52.018;5.576;2023-04-06T14:54:00;20.50;44.90
67820;DHT22;54618;52.018;5.576;2023-04-06T14:56:28;20.50;44.10
67820;DHT22;54618;52.018;5.576;2023-04-06T14:58:58;20.50;44.20
67820;DHT22;54618;52.018;5.576;2023-04-06T15:01:23;20.50;44.10
67820;DHT22;54618;52.018;5.576;2023-04-06T15:03:49;20.50;44.00
67820;DHT22;54618;52.018;5.576;2023-04-06T15:06:15;20.40;44.00
67820;DHT22;54618;52.018;5.576;2023-04-06T15:08:44;20.40;43.90
67820;DHT22;54618;52.018;5.576;2023-04-06T15:11:10;20.50;44.00
67820;DHT22;54618;52.018;5.576;2023-04-06T15:13:37;20.80;43.60
67820;DHT22;54618;52.018;5.576;2023-04-06T15:16:03;21.10;43.20
67820;DHT22;54618;52.018;5.576;2023-04-06T15:18:29;21.50;42.90
67820;DHT22;54618;52.018;5.576;2023-04-06T15:20:55;21.90;42.50
67820;DHT22;54618;52.018;5.576;2023-04-06T15:23:21;22.00;42.30
67820;DHT22;54618;52.018;5.576;2023-04-06T15:25:47;22.10;42.40
67820;DHT22;54618;52.018;5.576;2023-04-06T15:28:12;22.30;42.20
67820;DHT22;54618;52.018;5.576;2023-04-06T15:30:38;22.50;42.20
67820;DHT22;54618;52.018;5.576;2023-04-06T15:33:04;22.70;42.00
67820;DHT22;54618;52.018;5.576;2023-04-06T15:35:32;22.80;42.00
67820;DHT22;54618;52.018;5.576;2023-04-06T15:37:59;22.80;41.90